M I D A S
Marine Information and Data Acquisition System
Tripno 68 of the Zeeleeuw from 2001-11-29 08:50:00 to 2001-11-29 17:00:00
Back to CruiseResearch ActivitiesStationsMapUnderway DataData graphs

EquipmentUnitsComment
TimeDGPSUTC
LatitudeDGPSDM.mWGS84
LongitudeDGPSDM.mWGS84
HeadingGyrodeg 
SOGDGPSknotsSpeed over ground
COGDGPSdegCourse over ground
DepthEcho soundermeters200 kHz
Missing or incorrect values are displayed as -999
Navigation data collected by the RV Zeeleeuw from 2001-11-29 08:50:00 to 2001-11-29 17:00:00
                                                                                    Next 1000 lines
Time Latitude Longitude Heading SOG COG Depth
2001-11-29 08:50:07 51°20.311 2°58.781 341.8 13.4 337.9 11.7
2001-11-29 08:50:13 51°20.332 2°58.769 342.2 13.4 337.9 11.7
2001-11-29 08:50:17 51°20.346 2°58.761 345 13.4 339.8 11.8
2001-11-29 08:50:21 51°20.36 2°58.752 342.3 13.5 339.7 11.8
2001-11-29 08:50:28 51°20.384 2°58.738 344.5 13.4 339 11.7
2001-11-29 08:50:33 51°20.401 2°58.726 343.2 13.3 338.9 11.6
2001-11-29 08:50:37 51°20.414 2°58.716 340.2 13.3 336.8 11.8
2001-11-29 08:50:42 51°20.432 2°58.707 342.8 13.3 337.9 11.9
2001-11-29 08:50:48 51°20.452 2°58.691 339.7 13.4 335.8 11.8
2001-11-29 08:50:53 51°20.469 2°58.682 342 13.3 337.9 12.1
2001-11-29 08:50:57 51°20.483 2°58.671 340.5 13.4 336.7 12.1
2001-11-29 08:51:03 51°20.503 2°58.658 341.2 13.4 337.1 12.1
2001-11-29 08:51:08 51°20.52 2°58.645 340.8 13.4 336.6 12.1
2001-11-29 08:51:13 51°20.537 2°58.635 341.2 13.3 337 12.1
2001-11-29 08:51:17 51°20.551 2°58.627 343.5 13.2 338.6 12.1
2001-11-29 08:51:21 51°20.564 2°58.617 342.5 13.2 338.1 12
2001-11-29 08:51:28 51°20.589 2°58.602 342 13.3 337.5 12
2001-11-29 08:51:33 51°20.606 2°58.59 342.3 13.3 337.6 12.2
2001-11-29 08:51:37 51°20.62 2°58.583 343.5 13.3 338.6 12.3
2001-11-29 08:51:43 51°20.64 2°58.569 342.7 13.4 338.7 12.6
2001-11-29 08:51:47 51°20.654 2°58.561 344.2 13.3 338.7 12.5
2001-11-29 08:51:53 51°20.675 2°58.547 342.8 13.3 339.8 12.4
2001-11-29 08:51:57 51°20.688 2°58.539 343.2 13.3 337.8 12.4
2001-11-29 08:52:03 51°20.709 2°58.525 342.3 13.4 338.6 12.3
2001-11-29 08:52:08 51°20.726 2°58.514 340.7 13.4 337 12.3
2001-11-29 08:52:13 51°20.743 2°58.502 341.2 13.4 337.6 12.4
2001-11-29 08:52:18 51°20.761 2°58.491 342 13.3 337.5 12.4
2001-11-29 08:52:22 51°20.774 2°58.482 342.2 13.3 337.7 12.4
2001-11-29 08:52:28 51°20.795 2°58.469 342.7 13.3 338.5 12.5
2001-11-29 08:52:33 51°20.812 2°58.458 341.8 13.4 338.2 12.6
2001-11-29 08:52:38 51°20.83 2°58.448 344.2 13.4 338.5 12.5
2001-11-29 08:52:43 51°20.847 2°58.437 342.5 13.4 339.4 12.6
2001-11-29 08:52:48 51°20.865 2°58.428 343.7 13.4 339.3 12.5
2001-11-29 08:52:53 51°20.882 2°58.416 343.2 13.4 340.4 12.5
2001-11-29 08:52:57 51°20.896 2°58.408 343.3 13.4 339.6 12.5
2001-11-29 08:53:03 51°20.917 2°58.396 343.7 13.4 339.2 12.4
2001-11-29 08:53:08 51°20.934 2°58.384 342.7 13.4 339.1 12.6
2001-11-29 08:53:13 51°20.951 2°58.374 343.7 13.4 339.2 12.8
2001-11-29 08:53:17 51°20.965 2°58.366 343.3 13.4 339.4 12.9
2001-11-29 08:53:23 51°20.986 2°58.353 342.8 13.4 338.9 12.9
2001-11-29 08:53:28 51°21.004 2°58.343 344 13.4 339.5 12.7
2001-11-29 08:53:32 51°21.017 2°58.333 341.8 13.4 338.7 12.7
2001-11-29 08:53:38 51°21.038 2°58.321 341 13.3 338.7 12.7
2001-11-29 08:53:43 51°21.055 2°58.31 341.3 13.3 337.7 12.7
2001-11-29 08:53:48 51°21.073 2°58.3 344.2 13.3 339.6 12.6
2001-11-29 08:53:53 51°21.089 2°58.288 341.7 13.2 338 12.9
2001-11-29 08:53:57 51°21.103 2°58.279 341.8 13.2 337.7 13.1
2001-11-29 08:54:03 51°21.123 2°58.266 342.2 13.3 337.9 13.2
2001-11-29 08:54:07 51°21.137 2°58.257 342.2 13.3 337.6 13.2
2001-11-29 08:54:13 51°21.158 2°58.244 342.2 13.3 337.9 13.2
2001-11-29 08:54:17 51°21.171 2°58.235 343.3 13.3 338.1 13.2
2001-11-29 08:54:23 51°21.192 2°58.222 342.7 13.3 338.1 13.2
2001-11-29 08:54:27 51°21.206 2°58.213 341.5 13.3 337.6 13.2
2001-11-29 08:54:33 51°21.226 2°58.2 342.5 13.4 338.4 13.3
2001-11-29 08:54:37 51°21.24 2°58.19 341.3 13.4 337.2 13.4
2001-11-29 08:54:41 51°21.254 2°58.182 342.2 13.4 337.7 13.4
2001-11-29 08:54:47 51°21.275 2°58.169 342.8 13.4 337.9 13.5
2001-11-29 08:54:53 51°21.296 2°58.156 342.8 13.4 337.8 13.6
2001-11-29 08:54:58 51°21.312 2°58.143 340.8 13.3 337.8 13.5
2001-11-29 08:55:03 51°21.329 2°58.133 342 13.2 337.3 13.5
2001-11-29 08:55:08 51°21.346 2°58.121 340.7 13.2 337.2 13.3
2001-11-29 08:55:13 51°21.363 2°58.11 342.3 13.2 338.1 13.6
2001-11-29 08:55:17 51°21.377 2°58.101 341.5 13.3 337.6 13.4
2001-11-29 08:55:23 51°21.397 2°58.087 342.2 13.2 337.4 13.5
2001-11-29 08:55:27 51°21.411 2°58.079 341.8 13.2 337.3 13.7
2001-11-29 08:55:33 51°21.431 2°58.066 342.8 13.1 337.9 13.9
2001-11-29 08:55:37 51°21.444 2°58.058 343.3 13.2 338.7 14
2001-11-29 08:55:43 51°21.465 2°58.045 344.2 13.1 339.1 14.1
2001-11-29 08:55:48 51°21.482 2°58.035 344 13.1 339.5 14.1
2001-11-29 08:55:53 51°21.499 2°58.025 344.7 13.1 339.3 14.1
2001-11-29 08:55:57 51°21.512 2°58.015 342.8 13.2 338 14.3
2001-11-29 08:56:03 51°21.533 2°58.003 343.7 13.2 338.5 14.3
2001-11-29 08:56:08 51°21.55 2°57.992 342.3 13.2 338.6 14.2
2001-11-29 08:56:13 51°21.567 2°57.981 342.7 13.2 337.6 14
2001-11-29 08:56:18 51°21.584 2°57.969 340.7 13.2 337.9 14.1
2001-11-29 08:56:23 51°21.6 2°57.956 338.8 13.3 334.1 14.2
2001-11-29 08:56:27 51°21.614 2°57.946 339.7 13.3 335.2 14.3
2001-11-29 08:56:33 51°21.634 2°57.93 339 13.3 333.6 14.5
2001-11-29 08:56:37 51°21.647 2°57.921 339.8 13.3 335.7 14.6
2001-11-29 08:56:43 51°21.668 2°57.908 342.3 13.2 335.5 14.6
2001-11-29 08:56:48 51°21.685 2°57.897 341.8 13.3 338.3 14.8
2001-11-29 08:56:53 51°21.702 2°57.886 343.8 13.4 337.7 14.8
2001-11-29 08:56:58 51°21.719 2°57.875 343.7 13.3 339.4 14.9
2001-11-29 08:57:03 51°21.736 2°57.866 344.8 13.2 339.2 15
2001-11-29 08:57:08 51°21.754 2°57.856 345.8 13.2 340.8 15.1
2001-11-29 08:57:13 51°21.771 2°57.847 346.5 13.3 340.6 15.2
2001-11-29 08:57:17 51°21.786 2°57.84 347.5 13.3 342.7 15.1
2001-11-29 08:57:23 51°21.807 2°57.828 345.8 13.4 340.7 15.4
2001-11-29 08:57:28 51°21.825 2°57.819 346.3 13.5 341.7 15.4
2001-11-29 08:57:33 51°21.843 2°57.809 345.8 13.5 341 15.5
2001-11-29 08:57:37 51°21.857 2°57.803 348.5 13.4 343 15.6
2001-11-29 08:57:43 51°21.878 2°57.791 345.3 13.5 341.3 15.6
2001-11-29 08:57:47 51°21.893 2°57.784 347.2 13.4 342.8 15.7
2001-11-29 08:57:53 51°21.914 2°57.772 345.7 13.4 341.4 15.8
2001-11-29 08:57:57 51°21.928 2°57.766 348.7 13.3 342.5 15.9
2001-11-29 08:58:03 51°21.949 2°57.754 346.3 13.3 343.9 16
2001-11-29 08:58:08 51°21.966 2°57.746 346.7 13.3 341.6 16
2001-11-29 08:58:13 51°21.984 2°57.735 343.8 13.3 342.1 16
2001-11-29 08:58:17 51°21.997 2°57.727 343.2 13.3 339.6 16.3
2001-11-29 08:58:23 51°22.018 2°57.715 344.2 13.2 339.2 16.6
2001-11-29 08:58:27 51°22.032 2°57.707 344.7 13.3 340.3 16.7
2001-11-29 08:58:33 51°22.053 2°57.695 345 13.3 339.7 17
2001-11-29 08:58:38 51°22.071 2°57.686 346 13.3 341.8 17.3
2001-11-29 08:58:43 51°22.088 2°57.675 343.8 13.3 340.2 17.4
2001-11-29 08:58:48 51°22.105 2°57.668 347 13.2 341.8 17.4
2001-11-29 08:58:53 51°22.123 2°57.657 344.7 13.3 342.5 17.4
2001-11-29 08:58:58 51°22.141 2°57.65 346.5 13.4 341.5 17.4
2001-11-29 08:59:03 51°22.158 2°57.637 344 13.4 340.1 17.5
2001-11-29 08:59:08 51°22.175 2°57.628 343.2 13.4 338.4 17.8
2001-11-29 08:59:13 51°22.192 2°57.616 343.3 13.4 338.6 18
2001-11-29 08:59:17 51°22.206 2°57.61 345.3 13.3 340 18.1
2001-11-29 08:59:21 51°22.221 2°57.602 346.2 13.3 341.1 18.2
2001-11-29 08:59:28 51°22.245 2°57.589 344.8 13.3 340.5 18.4
2001-11-29 08:59:33 51°22.262 2°57.578 344 13.3 341 18.4
2001-11-29 08:59:37 51°22.277 2°57.572 346 13.4 341.4 18.5
2001-11-29 08:59:43 51°22.298 2°57.56 345.5 13.4 341.1 18.6
2001-11-29 08:59:48 51°22.316 2°57.553 347.8 13.4 343.2 18.7
2001-11-29 08:59:53 51°22.334 2°57.541 344.8 13.5 342.1 18.6
2001-11-29 08:59:57 51°22.348 2°57.535 345.8 13.5 342 18.7
2001-11-29 09:00:03 51°22.368 2°57.523 345.5 13.4 341.6 18.8
2001-11-29 09:00:08 51°22.386 2°57.514 345.5 13.3 341.4 18.8
2001-11-29 09:00:13 51°22.404 2°57.506 346.5 13.3 341.6 18.8
2001-11-29 09:00:17 51°22.418 2°57.497 344.3 13.3 341.9 18.9
2001-11-29 09:00:23 51°22.439 2°57.486 344.8 13.3 340.1 18.9
2001-11-29 09:00:27 51°22.453 2°57.479 344.8 13.4 341.8 18.7
2001-11-29 09:00:33 51°22.474 2°57.465 342.7 13.4 339.3 18.8
2001-11-29 09:00:37 51°22.488 2°57.458 343.8 13.4 340.7 18.9
2001-11-29 09:00:41 51°22.501 2°57.448 342.2 13.3 338.4 18.9
2001-11-29 09:00:48 51°22.526 2°57.435 343.5 13.4 340.2 18.9
2001-11-29 09:00:53 51°22.543 2°57.422 341.2 13.4 337.6 19.1
2001-11-29 09:00:57 51°22.558 2°57.416 344.5 13.4 340.5 19.2
2001-11-29 09:01:03 51°22.577 2°57.401 340.5 13.4 337.8 19
2001-11-29 09:01:08 51°22.595 2°57.391 341.7 13.3 338.7 19
2001-11-29 09:01:13 51°22.611 2°57.378 340.8 13.3 337.7 19
2001-11-29 09:01:18 51°22.629 2°57.369 342.7 13.2 339 19
2001-11-29 09:01:23 51°22.646 2°57.358 341.3 13.2 338.7 19.2
2001-11-29 09:01:28 51°22.663 2°57.349 344.2 13.3 339.8 19.3
2001-11-29 09:01:33 51°22.68 2°57.337 341.2 13.4 338.5 19.4
2001-11-29 09:01:37 51°22.695 2°57.33 343 13.4 339.5 19.4
2001-11-29 09:01:41 51°22.708 2°57.32 342.8 13.4 339 19.4
2001-11-29 09:01:48 51°22.733 2°57.308 345.2 13.4 340.4 19.5
2001-11-29 09:01:53 51°22.75 2°57.296 342.3 13.4 341.3 19.4
2001-11-29 09:01:58 51°22.768 2°57.287 344.3 13.4 340.7 19.4
2001-11-29 09:02:03 51°22.785 2°57.275 342.3 13.5 339.1 19.4
2001-11-29 09:02:08 51°22.804 2°57.267 345.3 13.5 341.3 19.3
2001-11-29 09:02:13 51°22.821 2°57.255 342.3 13.5 339.3 19.3
2001-11-29 09:02:17 51°22.835 2°57.249 344.8 13.5 341.1 19.3
2001-11-29 09:02:23 51°22.856 2°57.234 341.3 13.5 338.7 19.3
2001-11-29 09:02:28 51°22.874 2°57.226 344.5 13.4 340.5 19.2
2001-11-29 09:02:33 51°22.891 2°57.214 341.8 13.4 340.1 19.2
2001-11-29 09:02:38 51°22.908 2°57.205 343.5 13.5 338.7 19.1
2001-11-29 09:02:43 51°22.926 2°57.194 343.8 13.4 340.3 19.1
2001-11-29 09:02:47 51°22.94 2°57.186 342.7 13.4 338.9 19.1
2001-11-29 09:02:53 51°22.961 2°57.173 342.2 13.5 339.6 19.1
2001-11-29 09:02:57 51°22.975 2°57.166 344.5 13.5 339.8 19.2
2001-11-29 09:03:03 51°22.996 2°57.153 342.8 13.4 340.2 19.2
2001-11-29 09:03:08 51°23.014 2°57.145 345 13.4 341.5 18.9
2001-11-29 09:03:13 51°23.031 2°57.134 343.5 13.4 341 18.8
2001-11-29 09:03:18 51°23.048 2°57.125 343.7 13.4 340.8 18.6
2001-11-29 09:03:23 51°23.066 2°57.117 344.8 13.2 342.1 18.8
2001-11-29 09:03:28 51°23.083 2°57.106 344 13.2 340.6 18.6
2001-11-29 09:03:33 51°23.101 2°57.097 344.5 13.2 341.2 18.7
2001-11-29 09:03:37 51°23.115 2°57.088 342.8 13.3 339.3 18.8
2001-11-29 09:03:43 51°23.136 2°57.076 342.7 13.4 340.1 18.8
2001-11-29 09:03:48 51°23.153 2°57.065 341.7 13.4 337.7 18.7
2001-11-29 09:03:53 51°23.17 2°57.054 341.3 13.3 338.1 18.6
2001-11-29 09:03:58 51°23.187 2°57.042 341 13.3 337.6 18.5
2001-11-29 09:04:02 51°23.2 2°57.034 342.2 13.2 338.2 18.5
2001-11-29 09:04:08 51°23.221 2°57.021 341.7 13.3 339.2 18.6
2001-11-29 09:04:13 51°23.238 2°57.01 341.5 13.4 337.3 18.6
2001-11-29 09:04:17 51°23.252 2°57.002 341.3 13.4 338.8 18.6
2001-11-29 09:04:23 51°23.272 2°56.985 338 13.3 334.7 18.7
2001-11-29 09:04:28 51°23.289 2°56.974 339.8 13.3 336.9 18.9
2001-11-29 09:04:33 51°23.305 2°56.958 335.5 13.3 333.8 18.9
2001-11-29 09:04:37 51°23.319 2°56.951 338 13.3 334.5 19
2001-11-29 09:04:42 51°23.336 2°56.937 338.2 13.4 333.9 19
2001-11-29 09:04:48 51°23.356 2°56.923 338.7 13.4 335.3 19.1
2001-11-29 09:04:53 51°23.373 2°56.911 340 13.4 335.3 19.2
2001-11-29 09:04:58 51°23.39 2°56.901 340.8 13.3 338.1 19.4
2001-11-29 09:05:03 51°23.406 2°56.889 340.5 13.1 337.9 19.3
2001-11-29 09:05:08 51°23.424 2°56.88 343.2 13 339.4 19.2
2001-11-29 09:05:13 51°23.441 2°56.868 342 13.1 338.9 19.4
2001-11-29 09:05:17 51°23.454 2°56.861 342.7 13.1 339 19.5
2001-11-29 09:05:23 51°23.475 2°56.848 341.8 13.2 338.8 19.7
2001-11-29 09:05:28 51°23.492 2°56.838 343.2 13.2 339.6 19.5
2001-11-29 09:05:33 51°23.509 2°56.826 342 13.2 339.5 19.3
2001-11-29 09:05:38 51°23.526 2°56.814 339.7 13.2 337.5 19.5
2001-11-29 09:05:43 51°23.543 2°56.804 341 13.2 337.5 19.4
2001-11-29 09:05:47 51°23.556 2°56.793 338 13.2 335.6 17.6
2001-11-29 09:05:53 51°23.576 2°56.78 339.3 13.1 335.8 19.1
2001-11-29 09:05:57 51°23.589 2°56.769 336.3 13.2 334.8 19.9
2001-11-29 09:06:03 51°23.608 2°56.752 336.2 13.2 332.3 20
2001-11-29 09:06:08 51°23.625 2°56.738 336.5 13.3 333.1 20
2001-11-29 09:06:13 51°23.64 2°56.723 333.7 13.3 330.3 19.4
2001-11-29 09:06:17 51°23.653 2°56.714 336 13.2 331.9 18.9
2001-11-29 09:06:21 51°23.666 2°56.701 336.5 13.2 330.9 18.4
2001-11-29 09:06:28 51°23.689 2°56.683 336.2 13.1 332.6 17.1
2001-11-29 09:06:33 51°23.705 2°56.67 336.8 13.1 332.6 16.8
2001-11-29 09:06:37 51°23.718 2°56.661 338.3 13 335.1 18.2
2001-11-29 09:06:43 51°23.738 2°56.646 337.8 13 335.3 18
2001-11-29 09:06:48 51°23.754 2°56.634 338.3 13 335.8 17.5
2001-11-29 09:06:53 51°23.77 2°56.621 337.3 13 333.3 17.1
2001-11-29 09:06:57 51°23.784 2°56.613 340.2 12.9 335.5 16.6
2001-11-29 09:07:03 51°23.803 2°56.596 336.3 13 334.1 15
2001-11-29 09:07:08 51°23.819 2°56.585 339.5 12.9 334.6 16
2001-11-29 09:07:13 51°23.835 2°56.571 336.3 12.9 333.7 17.6
2001-11-29 09:07:17 51°23.848 2°56.562 337.5 12.9 333.3 17.9
2001-11-29 09:07:23 51°23.867 2°56.546 338.3 13.1 333.9 17.5
2001-11-29 09:07:28 51°23.884 2°56.535 340.7 13.1 335.9 16.9
2001-11-29 09:07:33 51°23.9 2°56.521 337.2 13.1 335.2 15.5
2001-11-29 09:07:37 51°23.913 2°56.512 339 13 334 15.8
2001-11-29 09:07:43 51°23.933 2°56.498 339 12.9 335.6 17
2001-11-29 09:07:48 51°23.95 2°56.486 339.5 13.1 334.6 17.8
2001-11-29 09:07:53 51°23.966 2°56.474 340 13.1 336.5 18
2001-11-29 09:07:58 51°23.983 2°56.463 340.5 13 335.7 17.6
2001-11-29 09:08:03 51°24 2°56.451 340.2 13 337.1 16.8
2001-11-29 09:08:08 51°24.016 2°56.44 340.3 13 336.1 15.8
2001-11-29 09:08:13 51°24.033 2°56.428 340.2 13 338.1 17.5
2001-11-29 09:08:17 51°24.045 2°56.418 338 12.9 334.1 17.9
2001-11-29 09:08:21 51°24.059 2°56.41 337.3 12.9 335 17.9
2001-11-29 09:08:28 51°24.08 2°56.39 336.2 12.9 333.4 17.7
2001-11-29 09:08:33 51°24.097 2°56.379 339.8 12.9 335.5 16.5
2001-11-29 09:08:37 51°24.109 2°56.366 334.7 12.9 331.9 18.1
2001-11-29 09:08:42 51°24.126 2°56.356 338 12.8 334.3 19.2
2001-11-29 09:08:48 51°24.145 2°56.339 336.3 12.9 332.8 19.8
2001-11-29 09:08:53 51°24.161 2°56.329 339.3 13 334.8 20.2
2001-11-29 09:08:58 51°24.177 2°56.315 337.3 12.9 335.1 20.2
2001-11-29 09:09:03 51°24.195 2°56.305 340.2 12.9 336.6 20.2
2001-11-29 09:09:08 51°24.21 2°56.291 336.3 13 334.9 20.3
2001-11-29 09:09:12 51°24.224 2°56.283 339.3 13 335 20.7
2001-11-29 09:09:18 51°24.243 2°56.266 336.2 13 334.1 21.2
2001-11-29 09:09:23 51°24.259 2°56.254 337.2 13 334.1 21.5
2001-11-29 09:09:28 51°24.276 2°56.243 338.7 13 335 22
2001-11-29 09:09:33 51°24.292 2°56.23 336.5 13.1 334.9 22.1
2001-11-29 09:09:37 51°24.305 2°56.22 337.2 13.2 334.6 22.6
2001-11-29 09:09:43 51°24.326 2°56.205 338.2 13.3 335 23
2001-11-29 09:09:48 51°24.342 2°56.194 339.8 13.3 335.9 23.3
2001-11-29 09:09:52 51°24.356 2°56.185 341.3 13.3 337.5 23.6
2001-11-29 09:09:57 51°24.373 2°56.172 339 13.3 336.1 23.8
2001-11-29 09:10:03 51°24.394 2°56.16 341.2 13.4 337.4 23.7
2001-11-29 09:10:08 51°24.411 2°56.148 340 13.5 337.8 23.6
2001-11-29 09:10:13 51°24.429 2°56.136 339.7 13.5 337.3 23.6
2001-11-29 09:10:17 51°24.442 2°56.126 338.8 13.5 336 23.7
2001-11-29 09:10:22 51°24.459 2°56.115 338.8 13.5 336.4 23.8
2001-11-29 09:10:28 51°24.48 2°56.101 340.3 13.4 336.4 23.9
2001-11-29 09:10:33 51°24.497 2°56.089 340.2 13.3 338.1 23.9
2001-11-29 09:10:37 51°24.511 2°56.081 340.8 13.3 338.1 24
2001-11-29 09:10:43 51°24.531 2°56.068 340 13.3 338.1 23.9
2001-11-29 09:10:48 51°24.548 2°56.056 339.5 13.3 337.5 23.9
2001-11-29 09:10:53 51°24.565 2°56.044 339.5 13.4 336.8 24
2001-11-29 09:10:57 51°24.579 2°56.036 340.5 13.4 337.3 24.2
2001-11-29 09:11:03 51°24.599 2°56.02 338 13.4 336.4 24.3
2001-11-29 09:11:07 51°24.613 2°56.012 339.5 13.4 336.8 24.2
2001-11-29 09:11:13 51°24.633 2°55.995 337.5 13.5 334.9 24.2
2001-11-29 09:11:17 51°24.647 2°55.987 338 13.5 336 24.3
2001-11-29 09:11:23 51°24.667 2°55.97 335.8 13.5 335.5 24.4
2001-11-29 09:11:28 51°24.684 2°55.959 338.3 13.5 335.3 24.7
2001-11-29 09:11:32 51°24.697 2°55.946 335.3 13.5 334.2 24.7
2001-11-29 09:11:37 51°24.714 2°55.935 337.3 13.4 334 24.8
2001-11-29 09:11:42 51°24.731 2°55.922 337 13.3 334.9 24.7
2001-11-29 09:11:48 51°24.751 2°55.908 338.8 13.4 336.1 24.7
2001-11-29 09:11:53 51°24.768 2°55.895 337 13.4 336.3 24.8
2001-11-29 09:11:57 51°24.781 2°55.886 338.3 13.4 336.2 25
2001-11-29 09:12:03 51°24.802 2°55.872 339.2 13.4 336.9 25.2
2001-11-29 09:12:07 51°24.816 2°55.862 338.3 13.4 336.5 25.4
2001-11-29 09:12:13 51°24.836 2°55.848 337.7 13.4 336.2 25.6
2001-11-29 09:12:17 51°24.849 2°55.838 338.3 13.3 335.4 25.7
2001-11-29 09:12:23 51°24.87 2°55.823 339 13.4 336.1 25.7
2001-11-29 09:12:28 51°24.886 2°55.811 337.3 13.4 334.6 25.7
2001-11-29 09:12:33 51°24.904 2°55.799 336.7 13.5 336 25.6
2001-11-29 09:12:37 51°24.917 2°55.787 336.3 13.4 333.4 25.3
2001-11-29 09:12:42 51°24.934 2°55.776 338.5 13.4 336.1 25.1
2001-11-29 09:12:48 51°24.954 2°55.759 336.2 13.4 333.9 25
2001-11-29 09:12:53 51°24.97 2°55.748 338 13.3 334.6 24.8
2001-11-29 09:12:57 51°24.984 2°55.737 337 13.3 335.2 24.5
2001-11-29 09:13:02 51°25.001 2°55.724 336.8 13.4 334.2 24.2
2001-11-29 09:13:08 51°25.021 2°55.711 339.5 13.4 334.1 23.9
2001-11-29 09:13:13 51°25.038 2°55.697 338.3 13.3 335.7 23.5
2001-11-29 09:13:17 51°25.051 2°55.689 340 13.3 335.9 23.2
2001-11-29 09:13:22 51°25.068 2°55.678 340.2 13.2 338.1 22.8
2001-11-29 09:13:28 51°25.088 2°55.663 339.2 13.2 335.7 22.5
2001-11-29 09:13:33 51°25.106 2°55.653 340.5 13.2 337.8 22.1
2001-11-29 09:13:37 51°25.119 2°55.642 338.3 13.3 335.9 21.1
2001-11-29 09:13:43 51°25.139 2°55.63 342.3 13.2 338.8 20.5
2001-11-29 09:13:48 51°25.156 2°55.618 338.8 13.1 336.9 19.9
2001-11-29 09:13:53 51°25.173 2°55.608 340.5 13 337.4 19.7
2001-11-29 09:13:57 51°25.186 2°55.599 339.5 13 337.6 19.3
2001-11-29 09:14:01 51°25.199 2°55.59 340.7 13 337.3 19.4
2001-11-29 09:14:08 51°25.223 2°55.575 341.5 13 338.1 19.2
2001-11-29 09:14:13 51°25.24 2°55.565 342.3 13.1 339.7 19
2001-11-29 09:14:17 51°25.253 2°55.557 342.3 13.1 339.5 18.8
2001-11-29 09:14:23 51°25.273 2°55.543 340.5 13.1 340.4 18.6
2001-11-29 09:14:28 51°25.29 2°55.533 341.3 13.1 337.8 18.2
2001-11-29 09:14:33 51°25.307 2°55.522 341.5 13 338 18.2
2001-11-29 09:14:37 51°25.32 2°55.513 339.8 13 337.9 18
2001-11-29 09:14:43 51°25.34 2°55.501 342.7 13 337.2 18
2001-11-29 09:14:48 51°25.356 2°55.488 339 12.9 338.1 17.7
2001-11-29 09:14:53 51°25.373 2°55.479 341 12.9 337.3 16.1
2001-11-29 09:14:57 51°25.387 2°55.47 341.5 12.9 338.2 16.8
2001-11-29 09:15:02 51°25.403 2°55.459 340.2 13 337.9 18
2001-11-29 09:15:08 51°25.423 2°55.446 341.7 12.9 337.5 18.4
2001-11-29 09:15:13 51°25.439 2°55.432 338 13 336.3 18.7
2001-11-29 09:15:17 51°25.453 2°55.424 340.2 13.1 335.5 19.1
2001-11-29 09:15:21 51°25.466 2°55.413 336.8 13.1 333.7 19.3
2001-11-29 09:15:28 51°25.489 2°55.396 339 13.2 334.6 19.6
2001-11-29 09:15:33 51°25.505 2°55.382 336.5 13 333.2 19.7
2001-11-29 09:15:37 51°25.519 2°55.375 340.7 13 336.2 19.9
2001-11-29 09:15:42 51°25.535 2°55.359 335.8 13 332.7 20
2001-11-29 09:15:48 51°25.555 2°55.347 339.5 12.9 335 19.8
2001-11-29 09:15:53 51°25.57 2°55.333 337.2 12.9 334 19.2
2001-11-29 09:15:58 51°25.587 2°55.323 340.5 12.9 335.5 17.6
2001-11-29 09:16:03 51°25.603 2°55.308 337.7 13 334.1 17.8
2001-11-29 09:16:08 51°25.62 2°55.299 340 13 334.9 18.5
2001-11-29 09:16:13 51°25.636 2°55.285 338.5 12.9 336.1 19.3
2001-11-29 09:16:17 51°25.649 2°55.277 341.2 13 336.2 20.2
2001-11-29 09:16:23 51°25.669 2°55.262 340.2 13.1 336.5 20.9
2001-11-29 09:16:28 51°25.686 2°55.253 342 13.2 337.6 21.1
2001-11-29 09:16:33 51°25.703 2°55.241 340.5 13.2 339 21.3
2001-11-29 09:16:38 51°25.72 2°55.23 341 13.1 336.5 21.6
2001-11-29 09:16:43 51°25.737 2°55.219 341.3 13.1 338.1 21.7
2001-11-29 09:16:47 51°25.75 2°55.209 340.7 13.2 336.2 21.6
2001-11-29 09:16:53 51°25.771 2°55.197 342.3 13.3 338.7 21.2
2001-11-29 09:16:57 51°25.784 2°55.187 341.2 13.2 336.6 20.2
2001-11-29 09:17:03 51°25.805 2°55.176 342.7 13.2 339.9 20.6
2001-11-29 09:17:07 51°25.818 2°55.165 341 13.2 337 21
2001-11-29 09:17:13 51°25.839 2°55.156 345.7 13.2 340.8 21.3
2001-11-29 09:17:17 51°25.853 2°55.147 342.2 13.2 339.9 21.7
2001-11-29 09:17:23 51°25.873 2°55.135 342.3 13.2 338.1 22
2001-11-29 09:17:27 51°25.887 2°55.125 339.8 13.2 338.5 22.3
2001-11-29 09:17:33 51°25.907 2°55.113 341.5 13.2 338.3 22.5
2001-11-29 09:17:37 51°25.921 2°55.103 340.3 13.2 337.5 22.8
2001-11-29 09:17:43 51°25.941 2°55.089 340.5 13.3 336.6 23.2
2001-11-29 09:17:48 51°25.958 2°55.078 340 13.3 337.2 23.5
2001-11-29 09:17:53 51°25.975 2°55.066 340.7 13.4 337.1 23.6
2001-11-29 09:17:57 51°25.989 2°55.057 341.7 13.4 337.1 23.7
2001-11-29 09:18:03 51°26.009 2°55.044 341.2 13.3 337.7 23.9
2001-11-29 09:18:08 51°26.025 2°55.03 338 13.3 335.7 23.9
2001-11-29 09:18:13 51°26.043 2°55.02 340.7 13.1 336.9 24.1
2001-11-29 09:18:17 51°26.056 2°55.01 339 13.1 335.7 24.4
2001-11-29 09:18:23 51°26.076 2°54.997 341.2 13.1 337 24.7
2001-11-29 09:18:28 51°26.092 2°54.985 338.8 13.2 336.1 25
2001-11-29 09:18:32 51°26.106 2°54.975 338.8 13.3 336 25.1
2001-11-29 09:18:37 51°26.123 2°54.965 341 13.2 337.6 25.1
2001-11-29 09:18:43 51°26.143 2°54.951 340 13.2 337.9 24.9
2001-11-29 09:18:48 51°26.16 2°54.938 339.5 13.3 336.2 25.1
2001-11-29 09:18:53 51°26.178 2°54.929 341.5 13.4 338.1 25.6
2001-11-29 09:18:57 51°26.191 2°54.917 340 13.5 336.4 26
2001-11-29 09:19:01 51°26.205 2°54.909 339.7 13.5 337 26.4
2001-11-29 09:19:08 51°26.229 2°54.892 339.3 13.5 336.4 26.2
2001-11-29 09:19:13 51°26.246 2°54.881 343.2 13.4 338 25.7
2001-11-29 09:19:17 51°26.259 2°54.869 338 13.4 334.7 25.6
2001-11-29 09:19:23 51°26.28 2°54.856 339.7 13.4 336.2 25.7
2001-11-29 09:19:28 51°26.297 2°54.846 341.8 13.3 336.5 26.5
2001-11-29 09:19:33 51°26.314 2°54.832 339.3 13.4 336.7 27.2
2001-11-29 09:19:37 51°26.328 2°54.823 339.7 13.4 336.1 27.6
2001-11-29 09:19:43 51°26.348 2°54.809 340.8 13.3 337.2 27.9
2001-11-29 09:19:48 51°26.365 2°54.8 343 13.3 338.4 28.1
2001-11-29 09:19:53 51°26.382 2°54.788 341.3 13.3 339.1 28.2
2001-11-29 09:19:57 51°26.396 2°54.781 343.3 13.3 339.1 28.2
2001-11-29 09:20:01 51°26.41 2°54.773 342.3 13.3 340.2 25.9
2001-11-29 09:20:08 51°26.435 2°54.758 344 13.3 340.2 27
2001-11-29 09:20:13 51°26.452 2°54.749 344.7 13.4 340.8 27.9
2001-11-29 09:20:17 51°26.467 2°54.741 344.2 13.5 341.1 27.8
2001-11-29 09:20:22 51°26.484 2°54.729 342.7 13.5 339.4 27.9
2001-11-29 09:20:28 51°26.505 2°54.72 344.3 13.4 341.8 27.3
2001-11-29 09:20:33 51°26.522 2°54.707 340.7 13.4 338.8 27.3
2001-11-29 09:20:38 51°26.54 2°54.7 344.8 13.3 340.8 27.6
2001-11-29 09:20:43 51°26.557 2°54.687 342.3 13.3 339.3 27.7
2001-11-29 09:20:47 51°26.571 2°54.68 343.7 13.4 340 27.6
2001-11-29 09:20:53 51°26.592 2°54.666 341.7 13.4 340.4 27.3
2001-11-29 09:20:57 51°26.606 2°54.659 342 13.6 339.5 26.8
2001-11-29 09:21:03 51°26.627 2°54.645 342.2 13.5 339.1 27.3
2001-11-29 09:21:08 51°26.645 2°54.637 343.5 13.6 340.7 26.4
2001-11-29 09:21:13 51°26.663 2°54.624 340.8 13.6 338.8 26.5
2001-11-29 09:21:17 51°26.677 2°54.617 344.2 13.6 339.9 26.5
2001-11-29 09:21:23 51°26.697 2°54.602 340.8 13.5 338.8 25.6
2001-11-29 09:21:28 51°26.715 2°54.594 342.2 13.5 339.3 26
2001-11-29 09:21:33 51°26.732 2°54.58 339 13.5 338 26
2001-11-29 09:21:37 51°26.746 2°54.571 339.8 13.5 336 24.9
2001-11-29 09:21:43 51°26.767 2°54.558 340.3 13.5 337.6 24.8
2001-11-29 09:21:48 51°26.784 2°54.546 340.3 13.5 337.2 24.8
2001-11-29 09:21:53 51°26.802 2°54.536 342.5 13.6 339.3 25.4
2001-11-29 09:21:57 51°26.815 2°54.523 338.3 13.6 335.9 25.4
2001-11-29 09:22:03 51°26.837 2°54.511 341.5 13.6 337.1 25.9
2001-11-29 09:22:07 51°26.85 2°54.5 339.3 13.6 336 26.1
2001-11-29 09:22:13 51°26.871 2°54.487 341.5 13.6 336.4 26.2
2001-11-29 09:22:18 51°26.889 2°54.476 340.7 13.7 338.7 26
2001-11-29 09:22:23 51°26.906 2°54.465 340.7 13.6 338.9 25.8
2001-11-29 09:22:28 51°26.924 2°54.455 341.7 13.5 339.3 25.9
2001-11-29 09:22:33 51°26.941 2°54.445 343.2 13.4 338.7 26.4
2001-11-29 09:22:37 51°26.956 2°54.438 343.8 13.4 341.1 27
2001-11-29 09:22:43 51°26.976 2°54.424 342.2 13.5 339.3 27.3
2001-11-29 09:22:48 51°26.994 2°54.415 343.5 13.5 340.4 27.4
2001-11-29 09:22:53 51°27.012 2°54.403 343 13.6 340.3 27.5
2001-11-29 09:22:58 51°27.03 2°54.393 342.8 13.6 339.6 27.5
2001-11-29 09:23:03 51°27.047 2°54.382 342.7 13.5 338.8 27.5
2001-11-29 09:23:07 51°27.062 2°54.375 342.7 13.6 340.6 27.6
2001-11-29 09:23:13 51°27.082 2°54.361 342 13.6 338.8 27.8
2001-11-29 09:23:17 51°27.097 2°54.354 342.3 13.6 340.1 27.8
2001-11-29 09:23:23 51°27.117 2°54.338 340.8 13.5 336.5 27.9
2001-11-29 09:23:27 51°27.132 2°54.331 341.7 13.5 339.4 27.8
2001-11-29 09:23:33 51°27.152 2°54.314 338.2 13.5 338.2 27.6
2001-11-29 09:23:38 51°27.169 2°54.304 341.5 13.5 336.5 27.5
2001-11-29 09:23:43 51°27.186 2°54.29 338.2 13.6 337.4 27.2
2001-11-29 09:23:47 51°27.2 2°54.282 340.7 13.6 336.1 27.5
2001-11-29 09:23:53 51°27.221 2°54.267 339.8 13.6 337 27.3
2001-11-29 09:23:58 51°27.238 2°54.256 339.7 13.5 335.2 27.3
2001-11-29 09:24:03 51°27.255 2°54.243 339.2 13.6 337.7 27.2
2001-11-29 09:24:08 51°27.272 2°54.23 336.3 13.5 334.1 27.4
2001-11-29 09:24:13 51°27.289 2°54.216 336.3 13.5 333.9 27.2
2001-11-29 09:24:17 51°27.302 2°54.205 334.5 13.4 332.3 27.3
2001-11-29 09:24:23 51°27.322 2°54.188 334.2 13.4 332 27.3
2001-11-29 09:24:28 51°27.338 2°54.175 334.7 13.4 331.9 27.6
2001-11-29 09:24:33 51°27.354 2°54.16 334.5 13.4 331.8 28
2001-11-29 09:24:38 51°27.371 2°54.146 334.5 13.4 332.1 28.1
2001-11-29 09:24:43 51°27.387 2°54.133 335.7 13.4 332.5 27.4
2001-11-29 09:24:48 51°27.404 2°54.12 335.3 13.4 334.1 26.2
2001-11-29 09:24:53 51°27.421 2°54.107 335.3 13.3 333.1 26.9
2001-11-29 09:24:57 51°27.433 2°54.095 332.5 13.3 332.6 26.9
2001-11-29 09:25:03 51°27.453 2°54.078 334.3 13.2 331.3 25.5
2001-11-29 09:25:08 51°27.468 2°54.063 333.3 13.3 331.6 25.9
2001-11-29 09:25:13 51°27.485 2°54.051 335.5 13.3 331.9 26.3
2001-11-29 09:25:18 51°27.501 2°54.036 334 13.4 332 26.5
2001-11-29 09:25:23 51°27.518 2°54.022 334 13.5 331.9 26.3
2001-11-29 09:25:28 51°27.535 2°54.009 336.8 13.5 332.4 26.2
2001-11-29 09:25:33 51°27.551 2°53.994 334.5 13.5 333.9 25.9
2001-11-29 09:25:38 51°27.568 2°53.982 336.8 13.3 332.6 25.4
2001-11-29 09:25:43 51°27.584 2°53.969 336.2 13.4 335.5 24
2001-11-29 09:25:48 51°27.601 2°53.958 337.5 13.3 334.1 23.1
2001-11-29 09:25:53 51°27.618 2°53.945 338.8 13.1 336.1 24
2001-11-29 09:25:57 51°27.63 2°53.934 337 13.1 334.6 24.9
2001-11-29 09:26:02 51°27.647 2°53.922 337.7 13.1 334.4 25.5
2001-11-29 09:26:08 51°27.667 2°53.908 339.8 13.1 335.9 25
2001-11-29 09:26:13 51°27.683 2°53.895 338.2 13.3 334.9 24.8
2001-11-29 09:26:17 51°27.697 2°53.886 339.3 13.2 335.7 24.6
2001-11-29 09:26:23 51°27.716 2°53.871 335.3 13.2 336.3 22.6
2001-11-29 09:26:28 51°27.733 2°53.86 338.5 13 333.7 22.2
2001-11-29 09:26:33 51°27.749 2°53.847 337.8 13.1 335.6 23.2
2001-11-29 09:26:37 51°27.761 2°53.835 334.3 13.1 331.8 23.5
2001-11-29 09:26:42 51°27.779 2°53.825 338.8 13.1 335.4 22.8
2001-11-29 09:26:48 51°27.796 2°53.805 330.3 13 329.8 22.5
2001-11-29 09:26:53 51°27.812 2°53.791 332.7 13 329.7 21.5
2001-11-29 09:26:58 51°27.827 2°53.775 330.3 13 328.4 21.3
2001-11-29 09:27:03 51°27.843 2°53.762 334.3 13 329.7 22.4
2001-11-29 09:27:08 51°27.859 2°53.746 331 13.2 329.5 23
2001-11-29 09:27:13 51°27.874 2°53.731 332.2 13.1 328.4 23.3
2001-11-29 09:27:17 51°27.887 2°53.72 333 13.2 330.2 23.6
2001-11-29 09:27:21 51°27.9 2°53.707 334.3 13.2 329.8 23.9
2001-11-29 09:27:28 51°27.923 2°53.688 335.3 13.3 331.9 24
2001-11-29 09:27:33 51°27.939 2°53.675 336.2 13.3 332.9 24
2001-11-29 09:27:37 51°27.954 2°53.668 340.2 13.4 336.7 23.9
2001-11-29 09:27:43 51°27.974 2°53.652 338 13.4 336.2 22.8
2001-11-29 09:27:47 51°27.987 2°53.641 338.3 13.4 334.7 22.6
2001-11-29 09:27:53 51°28.007 2°53.628 340 13.3 335.7 23
2001-11-29 09:27:57 51°28.02 2°53.617 338.5 13.2 334.8 22.6
2001-11-29 09:28:03 51°28.041 2°53.605 341.2 13.1 337.7 21.1
2001-11-29 09:28:08 51°28.057 2°53.592 339.2 13.1 337.3 19.9
2001-11-29 09:28:13 51°28.074 2°53.582 340.2 13.2 337.6 20.5
2001-11-29 09:28:18 51°28.09 2°53.567 336.2 13.3 334.5 21.2
2001-11-29 09:28:23 51°28.107 2°53.556 338.2 13.2 335.5 20.9
2001-11-29 09:28:28 51°28.124 2°53.544 338.5 13.3 336.4 21
2001-11-29 09:28:33 51°28.14 2°53.531 336.8 13.2 333.7 21.3
2001-11-29 09:28:38 51°28.157 2°53.518 339.8 13.1 335.3 21.6
2001-11-29 09:28:43 51°28.172 2°53.504 335.3 13 332 22.1
2001-11-29 09:28:48 51°28.189 2°53.492 336 13.1 334.4 22.8
2001-11-29 09:28:53 51°28.205 2°53.479 336.7 13.1 332.8 23.5
2001-11-29 09:28:57 51°28.218 2°53.468 335.3 13.1 333.3 23.6
2001-11-29 09:29:03 51°28.237 2°53.45 334.7 13.2 331.3 23.2
2001-11-29 09:29:08 51°28.254 2°53.438 336.8 13.2 333 23.1
2001-11-29 09:29:13 51°28.27 2°53.423 335.5 13.2 332.3 23.1
2001-11-29 09:29:17 51°28.283 2°53.414 337.3 13.3 333.3 23.3
2001-11-29 09:29:23 51°28.303 2°53.398 337 13.3 333.2 23.5
2001-11-29 09:29:28 51°28.32 2°53.385 336 13.4 334.4 23.5
2001-11-29 09:29:33 51°28.337 2°53.372 337.5 13.4 334.2 23.5
2001-11-29 09:29:37 51°28.349 2°53.359 334.3 13.4 331.7 23.6
2001-11-29 09:29:43 51°28.369 2°53.344 336.5 13.4 332.1 23.7
2001-11-29 09:29:48 51°28.385 2°53.328 333.7 13.4 331 24.2
2001-11-29 09:29:53 51°28.401 2°53.315 335 13.4 331.1 24.5
2001-11-29 09:29:58 51°28.418 2°53.3 334.2 13.3 331.6 24.9
2001-11-29 09:30:03 51°28.434 2°53.286 334.2 13.3 330.7 25.1
2001-11-29 09:30:08 51°28.45 2°53.272 335.7 13.3 332.6 25.3
2001-11-29 09:30:13 51°28.467 2°53.259 335.7 13.3 333 25.6
2001-11-29 09:30:18 51°28.483 2°53.245 336.2 13.4 333.3 25.7
2001-11-29 09:30:23 51°28.5 2°53.234 338.7 13.4 335.3 25.6
2001-11-29 09:30:28 51°28.516 2°53.219 335.7 13.3 333.8 25.9
2001-11-29 09:30:33 51°28.533 2°53.209 337.8 13.2 335.1 25.8
2001-11-29 09:30:38 51°28.55 2°53.196 336.7 13.2 335.4 25.8
2001-11-29 09:30:43 51°28.566 2°53.184 336.8 13.1 334.7 26.1
2001-11-29 09:30:48 51°28.583 2°53.171 337.5 13.1 335.1 26.5
2001-11-29 09:30:53 51°28.599 2°53.159 338.2 13.1 334.6 26.7
2001-11-29 09:30:57 51°28.613 2°53.152 338 13.1 337.1 27
2001-11-29 09:31:03 51°28.632 2°53.133 335 13.1 333.5 27.2
2001-11-29 09:31:08 51°28.649 2°53.123 336.8 13.2 334.7 27.5
2001-11-29 09:31:13 51°28.665 2°53.107 334.3 13.2 334.9 27.8
2001-11-29 09:31:17 51°28.678 2°53.097 335.8 13.2 332.6 28
2001-11-29 09:31:23 51°28.698 2°53.082 336.7 13.2 334.3 28.2
2001-11-29 09:31:28 51°28.714 2°53.069 336.3 13.2 333.2 27.9
2001-11-29 09:31:33 51°28.731 2°53.057 336.8 13.2 335.2 28
2001-11-29 09:31:38 51°28.746 2°53.042 333.7 13.2 332.9 27.9
2001-11-29 09:31:43 51°28.764 2°53.031 337 13.2 334.3 27.9
2001-11-29 09:31:48 51°28.779 2°53.015 333.3 13.2 331.7 28
2001-11-29 09:31:53 51°28.796 2°53.005 336 13.2 333.6 28
2001-11-29 09:31:58 51°28.811 2°52.988 331.8 13.2 330.3 28.1
2001-11-29 09:32:03 51°28.828 2°52.976 334.5 13.2 331.4 28
2001-11-29 09:32:08 51°28.843 2°52.959 330.3 13.2 330.2 27.7
2001-11-29 09:32:13 51°28.859 2°52.945 332 13.2 329.7 27.6
2001-11-29 09:32:17 51°28.872 2°52.933 332.5 13.2 329.3 27.5
2001-11-29 09:32:23 51°28.892 2°52.917 334.8 13.2 332 27.6
2001-11-29 09:32:27 51°28.904 2°52.906 334.8 13.2 331.9 27.7
2001-11-29 09:32:33 51°28.924 2°52.89 334.3 13.2 332.3 28
2001-11-29 09:32:38 51°28.94 2°52.877 334.7 13.1 332.3 28.3
2001-11-29 09:32:43 51°28.957 2°52.864 336.5 13.2 333.6 28.4
2001-11-29 09:32:48 51°28.973 2°52.852 336 13.3 334.7 28.5
2001-11-29 09:32:53 51°28.99 2°52.839 336.2 13.3 334.1 28.6
2001-11-29 09:32:57 51°29.004 2°52.83 337.8 13.2 335.6 28.7
2001-11-29 09:33:03 51°29.024 2°52.814 336.2 13.3 335.2 28.6
2001-11-29 09:33:07 51°29.037 2°52.803 336.5 13.3 333.5 28.6
2001-11-29 09:33:13 51°29.056 2°52.787 334.5 13.3 334.9 28.4
2001-11-29 09:33:18 51°29.073 2°52.775 336.2 13.2 333 28.7
2001-11-29 09:33:23 51°29.089 2°52.761 334.8 13.3 333.7 29.1
2001-11-29 09:33:28 51°29.106 2°52.748 334.2 13.3 332.2 29.4
2001-11-29 09:33:33 51°29.122 2°52.736 335.7 13.3 333.9 29.8
2001-11-29 09:33:37 51°29.135 2°52.724 334.3 13.3 332.7 30.2
2001-11-29 09:33:43 51°29.156 2°52.709 335.7 13.3 333.3 30.4
2001-11-29 09:33:47 51°29.168 2°52.696 331.2 13.3 330.7 30.6
2001-11-29 09:33:53 51°29.187 2°52.679 333.2 13.2 330 30.8
2001-11-29 09:33:58 51°29.202 2°52.664 331.2 13.2 329.7 31
2001-11-29 09:34:03 51°29.218 2°52.649 330.7 13.2 329.1 31.2
2001-11-29 09:34:08 51°29.234 2°52.634 332.2 13.3 330.7 31.3
2001-11-29 09:34:13 51°29.249 2°52.616 329 13.3 327.3 31.3
2001-11-29 09:34:17 51°29.263 2°52.606 331 13.4 329.3 31.5
2001-11-29 09:34:23 51°29.28 2°52.584 326.7 13.3 325.2 31.7
2001-11-29 09:34:28 51°29.296 2°52.569 328 13.2 326.8 31.7
2001-11-29 09:34:33 51°29.311 2°52.551 326.2 13.3 324.8 31.8
2001-11-29 09:34:37 51°29.323 2°52.538 326.2 13.3 325.4 32
2001-11-29 09:34:41 51°29.335 2°52.524 323 13.1 323.2 32.1
2001-11-29 09:34:48 51°29.354 2°52.498 322.2 13.1 322 32
2001-11-29 09:34:53 51°29.367 2°52.478 319.3 13 318.3 32
2001-11-29 09:34:57 51°29.377 2°52.462 315.8 12.9 316.2 31.9
2001-11-29 09:35:03 51°29.39 2°52.434 308.7 12.7 309.9 32.2
2001-11-29 09:35:08 51°29.399 2°52.41 303 12.6 303.8 32.4
2001-11-29 09:35:13 51°29.405 2°52.385 297.3 12.4 296.7 32.3
2001-11-29 09:35:17 51°29.41 2°52.365 291.3 12.3 292.7 32.4
2001-11-29 09:35:23 51°29.414 2°52.334 284.7 12.1 284.8 -999
2001-11-29 09:35:28 51°29.415 2°52.308 278.5 11.8 279.6 32.3
2001-11-29 09:35:33 51°29.414 2°52.284 271.8 11.5 274.3 32.4
2001-11-29 09:35:38 51°29.412 2°52.259 265.3 11.2 265.9 32.5
2001-11-29 09:35:43 51°29.409 2°52.237 260.3 10.6 258.7 32.5
2001-11-29 09:35:48 51°29.404 2°52.218 255.5 9.9 254.5 32.5
2001-11-29 09:35:53 51°29.4 2°52.202 250.7 8.6 249.2 32.7
2001-11-29 09:35:57 51°29.396 2°52.19 248 7.9 246.8 32.9
2001-11-29 09:36:03 51°29.391 2°52.172 245.8 7.3 244 32.8
2001-11-29 09:36:08 51°29.386 2°52.158 246.5 7.2 243.8 32.6
2001-11-29 09:36:13 51°29.382 2°52.143 248 7.2 244.9 32.4
2001-11-29 09:36:17 51°29.379 2°52.131 249.5 7.2 246.9 32.3
2001-11-29 09:36:23 51°29.375 2°52.114 249.3 7.1 247.2 32.2
2001-11-29 09:36:28 51°29.371 2°52.099 250 7.1 248 32.2
2001-11-29 09:36:33 51°29.367 2°52.083 249.7 7.3 248.1 32.3
2001-11-29 09:36:37 51°29.364 2°52.071 250.2 7.4 248.9 31.8
2001-11-29 09:36:43 51°29.36 2°52.053 250.3 7.4 248.5 32
2001-11-29 09:36:48 51°29.356 2°52.037 250.3 7.5 248.9 32.1
2001-11-29 09:36:53 51°29.352 2°52.02 250 7.8 248.8 32.3
2001-11-29 09:36:58 51°29.348 2°52.003 250.5 8.1 248.7 32.5
2001-11-29 09:37:03 51°29.343 2°51.987 249.7 8.2 247.1 32.5
2001-11-29 09:37:08 51°29.339 2°51.969 249.5 8.3 247.3 32.7
2001-11-29 09:37:13 51°29.334 2°51.952 249.3 8.4 246.8 32.8
2001-11-29 09:37:17 51°29.331 2°51.937 250.2 8.6 247.6 32.8
2001-11-29 09:37:23 51°29.325 2°51.915 250.2 8.8 247.2 32.9
2001-11-29 09:37:28 51°29.32 2°51.897 249.8 9 247.5 32.7
2001-11-29 09:37:33 51°29.316 2°51.879 250.2 8.9 247.1 32.8
2001-11-29 09:37:39 51°29.31 2°51.859 250 8.7 247 -999
2001-11-29 09:37:43 51°29.307 2°51.845 249.8 8.4 247 32.8
2001-11-29 09:37:48 51°29.301 2°51.828 249.3 8.4 247.3 32.8
2001-11-29 09:37:53 51°29.297 2°51.81 249.7 8.6 246.9 32.7
2001-11-29 09:37:57 51°29.293 2°51.795 249.8 8.7 247.9 32.7
2001-11-29 09:38:03 51°29.287 2°51.773 250.2 8.8 247.8 32.2
2001-11-29 09:38:08 51°29.283 2°51.755 251.3 8.8 248.7 32.3
2001-11-29 09:38:13 51°29.278 2°51.736 250.2 8.9 248.1 31.7
2001-11-29 09:38:17 51°29.275 2°51.722 251.2 8.9 248.9 31.5
2001-11-29 09:38:21 51°29.271 2°51.707 251.2 9 249.1 31.2
2001-11-29 09:38:28 51°29.265 2°51.681 250.8 9 248.8 31.4
2001-11-29 09:38:33 51°29.26 2°51.663 250.7 9 248.6 31.4
2001-11-29 09:38:37 51°29.257 2°51.648 250.2 9 248.8 -999
2001-11-29 09:38:43 51°29.251 2°51.625 250 9 248.3 31.5
2001-11-29 09:38:47 51°29.247 2°51.61 250 9.1 247.8 31.3
2001-11-29 09:38:53 51°29.241 2°51.588 250 9.1 246.9 30.9
2001-11-29 09:38:57 51°29.238 2°51.573 250.3 9.1 247 30.8
2001-11-29 09:39:03 51°29.232 2°51.55 249.8 9 247 30.2
2001-11-29 09:39:09 51°29.226 2°51.53 249.7 8.8 246.2 -999
2001-11-29 09:39:13 51°29.222 2°51.515 250.3 8.9 246.4 29.5
2001-11-29 09:39:18 51°29.217 2°51.495 250.3 9 247.7 29.5
2001-11-29 09:39:23 51°29.212 2°51.476 249.8 9.2 247.2 29.7
2001-11-29 09:39:28 51°29.207 2°51.456 250.7 9.5 247.4 30.1
2001-11-29 09:39:33 51°29.201 2°51.437 250.5 9.7 247.5 30.3
2001-11-29 09:39:38 51°29.197 2°51.416 250.2 9.7 248.4 -999
2001-11-29 09:39:43 51°29.191 2°51.398 251.2 9.5 247.3 30.6
2001-11-29 09:39:48 51°29.187 2°51.378 249.8 9.4 248 30.6
2001-11-29 09:39:53 51°29.181 2°51.359 249.2 9.5 246.3 30.8
2001-11-29 09:39:58 51°29.176 2°51.339 249.2 9.5 246.5 30.7
2001-11-29 09:40:03 51°29.17 2°51.321 249 9.4 245.7 30.8
2001-11-29 09:40:07 51°29.166 2°51.304 250.2 9.5 246.4 30.7
2001-11-29 09:40:13 51°29.16 2°51.281 250.3 9.7 246.8 31.6
2001-11-29 09:40:18 51°29.154 2°51.261 250 9.7 246.6 31.6
2001-11-29 09:40:23 51°29.149 2°51.241 250.3 9.7 247.2 32.4
2001-11-29 09:40:28 51°29.144 2°51.222 250.5 9.6 246.4 32.6
2001-11-29 09:40:33 51°29.139 2°51.203 250.7 9.3 247.9 -999
2001-11-29 09:40:38 51°29.135 2°51.185 251.2 8.9 248.4 -999
2001-11-29 09:40:43 51°29.13 2°51.167 250.3 8.7 247.8 31.5
2001-11-29 09:40:48 51°29.126 2°51.15 250.7 8.8 247.5 30.8
2001-11-29 09:40:53 51°29.121 2°51.131 250.7 8.7 248.6 29.8
2001-11-29 09:40:58 51°29.117 2°51.114 250.7 8.6 248.2 -999
2001-11-29 09:41:03 51°29.113 2°51.096 252.2 8.5 249.5 30.2
2001-11-29 09:41:08 51°29.108 2°51.08 250.5 8.4 248.1 29.6
2001-11-29 09:41:13 51°29.103 2°51.063 249.7 8.2 246.1 -999
2001-11-29 09:41:18 51°29.099 2°51.046 249.3 8.2 246 29.1
2001-11-29 09:41:23 51°29.094 2°51.029 251 8.2 247 29.2
2001-11-29 09:41:28 51°29.09 2°51.012 250.8 8.2 248.2 -999
2001-11-29 09:41:33 51°29.086 2°50.995 250.2 8.3 247.7 29.9
2001-11-29 09:41:37 51°29.082 2°50.981 250.7 8.4 247.4 29.7
2001-11-29 09:41:41 51°29.078 2°50.966 250.8 8.6 247.3 30.1
2001-11-29 09:41:48 51°29.072 2°50.942 250.7 8.7 247.2 29.6
2001-11-29 09:41:53 51°29.067 2°50.923 250.3 8.8 247.3 29.3
2001-11-29 09:41:57 51°29.063 2°50.908 250.3 8.9 247.3 29.7
2001-11-29 09:42:03 51°29.057 2°50.885 250.3 9.2 248.1 30.4
2001-11-29 09:42:08 51°29.052 2°50.866 250.3 9.3 247.5 31.1
2001-11-29 09:42:13 51°29.047 2°50.846 250.8 9.4 247.4 31
2001-11-29 09:42:18 51°29.042 2°50.827 249.7 9.5 247.1 30.8
2001-11-29 09:42:23 51°29.037 2°50.808 250.5 9.5 246.9 31.1
2001-11-29 09:42:28 51°29.032 2°50.789 250.2 9.4 247.3 30.4
2001-11-29 09:42:33 51°29.027 2°50.77 250.7 9.3 246.7 29.4
2001-11-29 09:42:37 51°29.023 2°50.754 250.5 9.4 247.1 29.4
2001-11-29 09:42:43 51°29.016 2°50.731 249.7 9.5 246 29.5
2001-11-29 09:42:48 51°29.011 2°50.711 249.7 9.5 246.8 29.8
2001-11-29 09:42:53 51°29.005 2°50.693 249.8 9.3 245.3 -999
2001-11-29 09:42:58 51°29.001 2°50.676 249.7 8.9 246.3 30.3
2001-11-29 09:43:03 51°28.996 2°50.659 250.3 8.6 247.7 -999
2001-11-29 09:43:08 51°28.993 2°50.641 251.3 8.5 249.7 30
2001-11-29 09:43:13 51°28.988 2°50.622 251.5 8.6 249.2 29.8
2001-11-29 09:43:17 51°28.984 2°50.607 251.7 8.9 249.1 29.8
2001-11-29 09:43:21 51°28.981 2°50.592 251.7 9.1 249.3 30
2001-11-29 09:43:28 51°28.975 2°50.566 252.2 9.2 249 -999
2001-11-29 09:43:33 51°28.97 2°50.547 252.7 9 250 30
2001-11-29 09:43:38 51°28.966 2°50.529 253.2 8.9 249.9 29.7
2001-11-29 09:43:43 51°28.962 2°50.51 253.3 8.9 250.6 29.5
2001-11-29 09:43:48 51°28.958 2°50.491 253.2 9.1 250.3 29.2
2001-11-29 09:43:53 51°28.953 2°50.472 253.7 9.2 250 28.7
2001-11-29 09:43:57 51°28.95 2°50.456 252.7 9.3 249.9 29
2001-11-29 09:44:03 51°28.944 2°50.433 253 9.4 249.4 29.2
2001-11-29 09:44:08 51°28.939 2°50.413 252.5 9.5 249.3 29
2001-11-29 09:44:13 51°28.935 2°50.394 252.2 9.3 248.8 28.6
2001-11-29 09:44:19 51°28.93 2°50.372 253 9.1 249 -999
2001-11-29 09:44:23 51°28.926 2°50.358 252.8 8.7 249.5 -999
2001-11-29 09:44:28 51°28.922 2°50.34 252.7 8.6 249.5 28.5
2001-11-29 09:44:33 51°28.918 2°50.322 252.8 8.6 249.6 28.5
2001-11-29 09:44:38 51°28.914 2°50.304 253.5 8.6 250.5 28.7
2001-11-29 09:44:43 51°28.91 2°50.286 253.2 8.6 250.9 28.3
2001-11-29 09:44:48 51°28.906 2°50.267 252.8 8.8 251.1 28
2001-11-29 09:44:53 51°28.902 2°50.249 252.8 8.9 250.2 28.3
2001-11-29 09:44:58 51°28.898 2°50.23 252.2 8.9 249.8 -999
2001-11-29 09:45:03 51°28.893 2°50.212 252.2 8.9 249 27.8
2001-11-29 09:45:08 51°28.889 2°50.192 252.7 9 249.8 27.6
2001-11-29 09:45:13 51°28.885 2°50.173 253 9 250.2 27.7
2001-11-29 09:45:18 51°28.88 2°50.155 252.5 9.1 249.7 28.1
2001-11-29 09:45:23 51°28.876 2°50.136 252 9.1 249.2 28.2
2001-11-29 09:45:28 51°28.871 2°50.116 251.8 9.3 248.6 28.4
2001-11-29 09:45:33 51°28.866 2°50.096 251.5 9.5 248.3 28.3
2001-11-29 09:45:37 51°28.862 2°50.08 251.7 9.6 248.5 28.3
2001-11-29 09:45:43 51°28.856 2°50.056 251.8 9.7 248.3 28.7
2001-11-29 09:45:47 51°28.853 2°50.04 251.3 9.7 248.8 28.8
2001-11-29 09:45:53 51°28.847 2°50.015 252 9.8 248.6 29
2001-11-29 09:45:57 51°28.844 2°49.999 252.5 9.6 250 29.4
2001-11-29 09:46:03 51°28.838 2°49.976 252.7 9.5 250 29.7
2001-11-29 09:46:08 51°28.834 2°49.957 252.8 9.3 250.1 29.9
2001-11-29 09:46:13 51°28.83 2°49.938 252.5 9.1 250.4 30.1
2001-11-29 09:46:18 51°28.825 2°49.92 252.2 8.8 249.2 30
2001-11-29 09:46:23 51°28.821 2°49.902 252.7 8.7 250 29.2
2001-11-29 09:46:28 51°28.818 2°49.884 253 8.8 251.3 28.6
2001-11-29 09:46:33 51°28.813 2°49.865 252.5 9 251 29.2
2001-11-29 09:46:38 51°28.809 2°49.846 252.3 8.9 250.8 -999
2001-11-29 09:46:43 51°28.805 2°49.828 252.7 8.9 250.8 30
2001-11-29 09:46:48 51°28.801 2°49.809 252.8 8.8 251 29.4
2001-11-29 09:46:53 51°28.797 2°49.791 252.2 8.9 251 29
2001-11-29 09:46:58 51°28.793 2°49.772 252.8 8.9 250.7 -999
2001-11-29 09:47:03 51°28.789 2°49.754 252.2 8.7 249.9 28.4
2001-11-29 09:47:08 51°28.785 2°49.736 252.2 8.6 249.4 28.8
2001-11-29 09:47:13 51°28.781 2°49.719 252.3 8.4 249.4 -999
2001-11-29 09:47:18 51°28.777 2°49.702 253 8.3 251.2 31
2001-11-29 09:47:23 51°28.773 2°49.684 251.7 8.3 250.8 31
2001-11-29 09:47:28 51°28.77 2°49.666 252.8 8.3 251.6 -999
2001-11-29 09:47:33 51°28.766 2°49.649 254.2 8.3 253.3 30.5
2001-11-29 09:47:37 51°28.763 2°49.634 253.2 8.4 252.6 30.6
2001-11-29 09:47:43 51°28.758 2°49.613 252.3 8.5 250.8 -999
2001-11-29 09:47:49 51°28.754 2°49.591 252.8 8.5 251.5 -999
2001-11-29 09:47:53 51°28.751 2°49.577 252 8.4 251.7 31
2001-11-29 09:47:58 51°28.748 2°49.56 253 8.4 252.3 31.4
2001-11-29 09:48:03 51°28.744 2°49.541 253 8.5 252.3 31.5
2001-11-29 09:48:08 51°28.74 2°49.523 251.7 8.6 251.1 31.7
2001-11-29 09:48:13 51°28.736 2°49.505 251.5 8.6 250.6 31.5
2001-11-29 09:48:18 51°28.732 2°49.486 252 8.7 250.1 31.1
2001-11-29 09:48:23 51°28.728 2°49.47 251.8 8.5 250 -999
2001-11-29 09:48:28 51°28.724 2°49.454 251.5 8.2 249.5 31.1
2001-11-29 09:48:33 51°28.72 2°49.437 250.7 7.9 249.3 -999
2001-11-29 09:48:38 51°28.717 2°49.421 251.8 7.7 249.2 30.8
2001-11-29 09:48:43 51°28.713 2°49.407 251.8 7.3 249.5 30.7
2001-11-29 09:48:48 51°28.71 2°49.393 251.2 7 249.9 30.9
2001-11-29 09:48:53 51°28.707 2°49.379 252.5 6.7 251.4 30.6
2001-11-29 09:48:58 51°28.704 2°49.364 252.8 6.6 252.2 -999
2001-11-29 09:49:03 51°28.701 2°49.35 252.3 6.9 250.7 31.1
2001-11-29 09:49:08 51°28.698 2°49.333 252 7.2 250.9 31.2
2001-11-29 09:49:13 51°28.694 2°49.317 252.2 7.5 251 31.2
2001-11-29 09:49:18 51°28.69 2°49.302 252 7.7 249.9 31.5
2001-11-29 09:49:23 51°28.687 2°49.284 252.7 7.8 251 31.6
2001-11-29 09:49:28 51°28.683 2°49.266 252.7 8.2 251.6 31.5
2001-11-29 09:49:33 51°28.68 2°49.248 253.2 8.5 252.1 31.4
2001-11-29 09:49:37 51°28.677 2°49.234 253.7 8.5 252.3 -999
2001-11-29 09:49:43 51°28.672 2°49.213 252.7 8.3 252.2 31.5
2001-11-29 09:49:48 51°28.669 2°49.196 252.2 8.3 251.2 31.5
2001-11-29 09:49:53 51°28.665 2°49.178 252.8 8.2 251.5 31.3
2001-11-29 09:49:59 51°28.661 2°49.158 253.5 8.1 252.2 -999
2001-11-29 09:50:03 51°28.659 2°49.144 253 8.1 252.3 31.5
2001-11-29 09:50:08 51°28.655 2°49.127 252.7 8.2 252 31.9
2001-11-29 09:50:13 51°28.651 2°49.108 253 8.5 251.9 32.2
2001-11-29 09:50:18 51°28.647 2°49.089 253 8.8 251.6 32.3
2001-11-29 09:50:23 51°28.643 2°49.071 252.5 8.9 251.6 -999
2001-11-29 09:50:28 51°28.639 2°49.052 251 8.8 250.6 32.8
2001-11-29 09:50:33 51°28.633 2°49.035 248.2 8.8 247.9 32.9
2001-11-29 09:50:38 51°28.628 2°49.018 245.3 8.6 243.7 33.3
2001-11-29 09:50:43 51°28.622 2°49.002 240.7 8.4 239.8 33.3
2001-11-29 09:50:48 51°28.615 2°48.987 237.8 8.3 237.4 33.6
2001-11-29 09:50:53 51°28.607 2°48.972 235 8.4 233.8 33.8
2001-11-29 09:50:57 51°28.601 2°48.962 231.5 8.5 228.6 34.3
2001-11-29 09:51:01 51°28.593 2°48.952 228.2 8.5 225 34.9
2001-11-29 09:51:08 51°28.58 2°48.935 224.7 8.6 220.7 35
2001-11-29 09:51:13 51°28.57 2°48.924 221.2 8.7 215.3 35.1
2001-11-29 09:51:17 51°28.562 2°48.917 217.5 8.7 211.9 34.9
2001-11-29 09:51:23 51°28.548 2°48.908 213.3 8.7 205.8 34.9
2001-11-29 09:51:28 51°28.536 2°48.903 209.2 8.8 201.5 34.8
2001-11-29 09:51:33 51°28.524 2°48.898 205 8.8 195.9 34.6
2001-11-29 09:51:37 51°28.514 2°48.895 201.5 8.9 193 33.9
2001-11-29 09:51:43 51°28.499 2°48.892 198.8 9 191 32.8
2001-11-29 09:51:48 51°28.486 2°48.892 194.2 9.1 185 30.1
2001-11-29 09:51:53 51°28.473 2°48.893 191 9.2 181.7 27.3
2001-11-29 09:51:57 51°28.462 2°48.893 188 9.3 178.1 27.4
2001-11-29 09:52:01 51°28.452 2°48.896 186.8 9.5 175.4 27.7
2001-11-29 09:52:08 51°28.433 2°48.899 185.5 9.6 175.3 27.7
2001-11-29 09:52:13 51°28.42 2°48.902 183 9.8 171.9 27.8
2001-11-29 09:52:17 51°28.409 2°48.904 182.2 10 171.9 27.8
2001-11-29 09:52:23 51°28.392 2°48.909 181.8 10.2 171.2 28.1
2001-11-29 09:52:28 51°28.377 2°48.913 180.5 10.5 170.4 28.4
2001-11-29 09:52:33 51°28.362 2°48.917 180.7 10.8 170.2 28.8
2001-11-29 09:52:37 51°28.35 2°48.921 181.8 11.1 170.3 29.8
2001-11-29 09:52:43 51°28.331 2°48.923 182.8 11.1 172.6 30.6
2001-11-29 09:52:48 51°28.316 2°48.928 182.7 11.2 171.5 31.6
2001-11-29 09:52:53 51°28.3 2°48.931 182.3 11.3 172.9 32.2
2001-11-29 09:52:57 51°28.287 2°48.933 182.7 11.4 172.8 32.5
2001-11-29 09:53:03 51°28.268 2°48.938 182.3 11.5 172.2 32.4
2001-11-29 09:53:08 51°28.252 2°48.942 181.5 11.5 171.9 32
2001-11-29 09:53:13 51°28.236 2°48.945 182 11.6 171.8 31.6
2001-11-29 09:53:17 51°28.223 2°48.948 182.3 11.7 172.5 31.1
2001-11-29 09:53:23 51°28.204 2°48.951 182.7 11.7 172.9 30.5
2001-11-29 09:53:28 51°28.188 2°48.954 183.3 11.7 173 29.8
2001-11-29 09:53:33 51°28.172 2°48.958 183.2 11.7 172.8 29.3
2001-11-29 09:53:37 51°28.158 2°48.961 182.3 11.8 172.4 28.6
2001-11-29 09:53:43 51°28.139 2°48.966 180.8 11.9 171.3 28.2
2001-11-29 09:53:48 51°28.123 2°48.969 180.3 11.9 171.2 27.7
2001-11-29 09:53:53 51°28.107 2°48.975 180.2 12 169.2 27.5
2001-11-29 09:53:57 51°28.093 2°48.979 179.3 12.1 168.8 28.3
2001-11-29 09:54:03 51°28.074 2°48.986 180.3 12.1 168.4 -999
2001-11-29 09:54:08 51°28.058 2°48.993 176.8 12 166.4 27.9
2001-11-29 09:54:13 51°28.042 2°48.999 177.5 11.9 166.1 27.8
2001-11-29 09:54:18 51°28.026 2°49.004 178 11.9 166.9 27.5
2001-11-29 09:54:23 51°28.01 2°49.011 177.3 12 166.8 28.1
2001-11-29 09:54:28 51°27.994 2°49.015 178.3 12 168 28.8
2001-11-29 09:54:33 51°27.978 2°49.021 179 12 168.5 28.7
2001-11-29 09:54:37 51°27.965 2°49.025 179.7 12.1 169 28.6
2001-11-29 09:54:43 51°27.945 2°49.031 179.5 12.1 168.9 27.9
2001-11-29 09:54:48 51°27.929 2°49.037 179 12.1 168.4 27.3
2001-11-29 09:54:53 51°27.912 2°49.041 179.3 12 169.3 26.9
2001-11-29 09:54:58 51°27.896 2°49.048 179.2 12.1 168.2 26.2
2001-11-29 09:55:03 51°27.879 2°49.053 178.7 12.1 168 26
2001-11-29 09:55:08 51°27.863 2°49.058 178.5 12.1 168.3 28
2001-11-29 09:55:13 51°27.846 2°49.063 179.5 12.1 168.3 28
2001-11-29 09:55:18 51°27.83 2°49.068 179.3 12.1 169.1 28.3
2001-11-29 09:55:23 51°27.814 2°49.073 178.3 12 168.9 28.3
2001-11-29 09:55:28 51°27.798 2°49.079 178.5 12 167.9 27.7
2001-11-29 09:55:33 51°27.781 2°49.085 176.8 12.1 166.8 27.6
2001-11-29 09:55:37 51°27.768 2°49.094 173.8 12.2 163.6 27.6
2001-11-29 09:55:43 51°27.749 2°49.103 171.8 12.3 163.1 27.9
2001-11-29 09:55:47 51°27.736 2°49.11 171.8 12.3 161.5 28
2001-11-29 09:55:53 51°27.717 2°49.122 170.2 12.3 159.4 28
2001-11-29 09:55:58 51°27.701 2°49.132 169.8 12.3 159.2 27.9
2001-11-29 09:56:03 51°27.685 2°49.142 169.5 12.4 158.4 27.9
2001-11-29 09:56:08 51°27.669 2°49.153 168.2 12.3 158 27.9
2001-11-29 09:56:13 51°27.654 2°49.163 167.8 12.3 157.8 27.8
2001-11-29 09:56:18 51°27.638 2°49.173 168.5 12.4 157.6 28.2
2001-11-29 09:56:23 51°27.622 2°49.184 168.2 12.5 156.6 28.4
2001-11-29 09:56:28 51°27.606 2°49.195 168.3 12.4 158.5 28.4
2001-11-29 09:56:33 51°27.59 2°49.204 169 12.4 157.9 28
2001-11-29 09:56:37 51°27.577 2°49.214 168.2 12.4 157.1 27.8
2001-11-29 09:56:43 51°27.558 2°49.226 168.3 12.5 158.1 27.9
2001-11-29 09:56:47 51°27.544 2°49.233 169.5 12.5 158.8 28.5
2001-11-29 09:56:53 51°27.525 2°49.245 170.3 12.5 159.4 28.6
2001-11-29 09:56:58 51°27.509 2°49.256 169.2 12.6 158.4 28.4
2001-11-29 09:57:03 51°27.492 2°49.265 169.7 12.6 159.7 27.3
2001-11-29 09:57:08 51°27.475 2°49.275 170.2 12.7 159.7 27
2001-11-29 09:57:13 51°27.459 2°49.284 170.8 12.8 160.2 26.7
2001-11-29 09:57:18 51°27.442 2°49.294 170.2 12.8 160 26.8
2001-11-29 09:57:23 51°27.425 2°49.304 170.7 12.9 160.2 27
2001-11-29 09:57:28 51°27.408 2°49.312 171.2 12.8 161.2 26.9
2001-11-29 09:57:33 51°27.391 2°49.322 171.3 12.8 160.2 26.9
2001-11-29 09:57:38 51°27.374 2°49.332 170.5 12.9 160.7 26.8
2001-11-29 09:57:43 51°27.357 2°49.342 170.2 13 159.7 26.7
2001-11-29 09:57:48 51°27.341 2°49.352 170 13.1 158.3 26.4
2001-11-29 09:57:53 51°27.324 2°49.364 167.8 12.9 157.7 26.4
2001-11-29 09:57:57 51°27.311 2°49.373 166.2 12.9 156.9 26.2
2001-11-29 09:58:03 51°27.292 2°49.389 165.8 13 155.5 26.5
2001-11-29 09:58:07 51°27.279 2°49.397 164.8 13 155.8 26.6
2001-11-29 09:58:13 51°27.26 2°49.414 165.2 13 153.3 26.5
2001-11-29 09:58:18 51°27.243 2°49.427 163 13 153.6 26.6
2001-11-29 09:58:23 51°27.227 2°49.439 162.7 13 153.5 26.6
2001-11-29 09:58:28 51°27.212 2°49.453 163.8 12.9 152.6 26.5
2001-11-29 09:58:33 51°27.195 2°49.466 162 13.1 152.9 26.4
2001-11-29 09:58:37 51°27.182 2°49.477 163.5 13.1 152.8 26.2
2001-11-29 09:58:43 51°27.163 2°49.493 163.3 13 153.2 25.9
2001-11-29 09:58:47 51°27.15 2°49.502 163.3 13 153.7 25.3
2001-11-29 09:58:53 51°27.131 2°49.518 164.3 13 153.4 25.2
2001-11-29 09:58:58 51°27.114 2°49.531 163.3 13 154.2 25.2
2001-11-29 09:59:03 51°27.098 2°49.543 164.8 12.9 154.3 25.3
2001-11-29 09:59:08 51°27.082 2°49.556 165.3 12.9 153.7 25.3
2001-11-29 09:59:13 51°27.066 2°49.568 165.3 12.8 155.8 25.2
2001-11-29 09:59:18 51°27.05 2°49.578 165.8 12.8 155.9 25
2001-11-29 09:59:23 51°27.034 2°49.592 166.2 12.8 154.8 24.9
2001-11-29 09:59:28 51°27.017 2°49.602 165.8 12.8 156.3 25
2001-11-29 09:59:33 51°27.001 2°49.615 166.5 12.9 156.1 24.9
2001-11-29 09:59:37 51°26.987 2°49.623 166.3 13 156.4 24.9
2001-11-29 09:59:43 51°26.967 2°49.636 166.5 12.9 156.8 24.7
2001-11-29 09:59:48 51°26.951 2°49.649 166.8 12.8 155.4 -999
2001-11-29 09:59:53 51°26.934 2°49.659 166.7 12.8 156.2 24.4
2001-11-29 09:59:57 51°26.922 2°49.669 167.3 12.8 156.4 24.2
2001-11-29 10:00:03 51°26.902 2°49.682 166.5 12.8 157.2 24.3
2001-11-29 10:00:08 51°26.885 2°49.694 166.3 13 156.4 23.7
2001-11-29 10:00:13 51°26.869 2°49.706 165.8 13.1 155.9 22.4
2001-11-29 10:00:18 51°26.852 2°49.717 165.5 13 156.4 24.1
2001-11-29 10:00:23 51°26.836 2°49.729 165.8 12.9 156.1 23.8
2001-11-29 10:00:28 51°26.819 2°49.742 165.7 12.9 155.5 23.1
2001-11-29 10:00:33 51°26.803 2°49.753 165.2 13.1 155.4 22.2
2001-11-29 10:00:38 51°26.787 2°49.766 164.7 13 155.6 20.5
2001-11-29 10:00:43 51°26.771 2°49.777 165 12.9 155.3 21.5
2001-11-29 10:00:48 51°26.754 2°49.79 165.8 12.9 155 22.6
2001-11-29 10:00:53 51°26.738 2°49.802 164.7 13 155.4 23.2
2001-11-29 10:00:57 51°26.725 2°49.811 164.3 13 154.9 21.7
2001-11-29 10:01:03 51°26.705 2°49.825 165.3 13.1 156 23
2001-11-29 10:01:08 51°26.688 2°49.837 166.3 13 155.9 24.2
2001-11-29 10:01:13 51°26.673 2°49.85 165 13 154.9 24.6
2001-11-29 10:01:17 51°26.66 2°49.86 164.3 13 154.5 25.1
2001-11-29 10:01:23 51°26.64 2°49.874 165 13 154.9 25.4
2001-11-29 10:01:27 51°26.627 2°49.883 165.7 13 155.4 26.1
2001-11-29 10:01:33 51°26.607 2°49.899 165 13.1 154.3 26.3
2001-11-29 10:01:38 51°26.591 2°49.911 164.3 13 154.9 26
2001-11-29 10:01:43 51°26.574 2°49.921 166.3 13 155.6 23.1
2001-11-29 10:01:48 51°26.558 2°49.934 166.3 13 156 24
2001-11-29 10:01:53 51°26.542 2°49.947 164 13.1 154.3 24.8
2001-11-29 10:01:57 51°26.529 2°49.957 165.3 13.1 154.2 25.4
2001-11-29 10:02:03 51°26.509 2°49.971 165.3 13 155.1 25.6
2001-11-29 10:02:08 51°26.493 2°49.985 165 13 154.3 25.8
2001-11-29 10:02:13 51°26.476 2°49.997 164.8 13 155 25.9
2001-11-29 10:02:17 51°26.463 2°50.007 164.7 13 155 25.9
2001-11-29 10:02:21 51°26.45 2°50.016 164.8 13 155.1 24.6
2001-11-29 10:02:28 51°26.427 2°50.034 165.5 13 154.3 26
2001-11-29 10:02:33 51°26.411 2°50.046 165.2 13 154.5 26
2001-11-29 10:02:37 51°26.398 2°50.054 165.8 13 156.1 25.9
2001-11-29 10:02:43 51°26.379 2°50.071 165.3 13 153.9 25.8
2001-11-29 10:02:48 51°26.362 2°50.083 164.3 13 154.8 25.9
2001-11-29 10:02:53 51°26.346 2°50.096 165.3 13 153.6 26
2001-11-29 10:02:57 51°26.333 2°50.105 165.5 13 154.8 26
2001-11-29 10:03:03 51°26.313 2°50.12 166 13 154.9 26
2001-11-29 10:03:08 51°26.297 2°50.133 165.8 13 154.8 25.9
2001-11-29 10:03:13 51°26.28 2°50.145 166.2 13 155.2 25.9
2001-11-29 10:03:17 51°26.267 2°50.155 165.8 13.1 155.2 26
2001-11-29 10:03:23 51°26.247 2°50.168 165.7 13 155.7 26.3
2001-11-29 10:03:28 51°26.231 2°50.181 166.3 13 154.7 26.2
2001-11-29 10:03:33 51°26.215 2°50.194 165.2 13 154.3 26
2001-11-29 10:03:38 51°26.199 2°50.207 165.7 13 154.1 26
2001-11-29 10:03:43 51°26.183 2°50.218 166 12.9 155.4 25.9
2001-11-29 10:03:48 51°26.166 2°50.23 166 13 154.5 25.7
2001-11-29 10:03:53 51°26.15 2°50.243 165.3 13.1 155 25.7
2001-11-29 10:03:57 51°26.136 2°50.251 168.2 13 156.4 25.8
2001-11-29 10:04:03 51°26.116 2°50.26 173 12.8 162 25.7
2001-11-29 10:04:08 51°26.099 2°50.264 178.8 12.5 166.7 25.7
2001-11-29 10:04:13 51°26.082 2°50.265 186 12.2 174.3 25.6
2001-11-29 10:04:17 51°26.069 2°50.264 192.7 12 179.8 25.5
2001-11-29 10:04:23 51°26.05 2°50.259 198.7 11.4 186.7 25.4
2001-11-29 10:04:28 51°26.038 2°50.253 206.2 10.5 191.2 -999
2001-11-29 10:04:33 51°26.027 2°50.246 211.2 9.2 198.2 25.3
2001-11-29 10:04:38 51°26.017 2°50.238 216.2 8.6 203.3 25.6
2001-11-29 10:04:43 51°26.009 2°50.228 221.7 8 211 25.7
2001-11-29 10:04:48 51°26.001 2°50.217 227.5 7.7 216.5 25.8
2001-11-29 10:04:53 51°25.995 2°50.205 234 7.2 225.6 25.9
2001-11-29 10:04:57 51°25.991 2°50.195 240.2 6.9 231.7 26
2001-11-29 10:05:03 51°25.985 2°50.179 245.2 6.7 239.1 25.9
2001-11-29 10:05:08 51°25.982 2°50.165 248.2 6.7 243.5 26
2001-11-29 10:05:13 51°25.978 2°50.151 249 6.8 246 26.1
2001-11-29 10:05:17 51°25.975 2°50.141 248.2 6.8 246.1 25.9
2001-11-29 10:05:23 51°25.97 2°50.124 246.7 6.9 243.7 25.9
2001-11-29 10:05:28 51°25.965 2°50.11 244.8 7 242.3 26
2001-11-29 10:05:33 51°25.96 2°50.097 243.2 7.1 239.2 26
2001-11-29 10:05:37 51°25.955 2°50.086 241.2 7.2 237.8 26.1
2001-11-29 10:05:43 51°25.949 2°50.071 240.2 7.1 235.2 26.1
2001-11-29 10:05:48 51°25.943 2°50.058 238.2 7.1 234.3 25.9
2001-11-29 10:05:53 51°25.937 2°50.045 237.8 7.1 233 25.8
2001-11-29 10:05:58 51°25.931 2°50.033 238 7.2 233.4 25.8
2001-11-29 10:06:03 51°25.924 2°50.02 237.7 7.2 232.4 25.8
2001-11-29 10:06:08 51°25.918 2°50.008 236.8 7.2 231 25.6
2001-11-29 10:06:13 51°25.911 2°49.996 236.8 7.1 230.1 25
2001-11-29 10:06:18 51°25.905 2°49.984 237.5 7 230.3 25.4
2001-11-29 10:06:23 51°25.9 2°49.972 238 7.1 231.8 25.4
2001-11-29 10:06:28 51°25.894 2°49.958 239.3 7.1 233.4 25.6
2001-11-29 10:06:33 51°25.889 2°49.945 241.2 7.1 236.7 25.8
2001-11-29 10:06:37 51°25.885 2°49.934 242.5 7.2 237.6 25.9
2001-11-29 10:06:43 51°25.878 2°49.916 243.5 7.5 239.8 26
2001-11-29 10:06:48 51°25.874 2°49.901 244.8 7.6 240.5 26
2001-11-29 10:06:53 51°25.869 2°49.886 246.3 7.7 242.5 26
2001-11-29 10:06:57 51°25.865 2°49.873 246.8 7.9 243.1 26
2001-11-29 10:07:03 51°25.859 2°49.854 247.2 8 243.7 25.8
2001-11-29 10:07:08 51°25.854 2°49.838 246.8 8 244 25.7
2001-11-29 10:07:13 51°25.849 2°49.822 246.7 8 242.9 25.7
2001-11-29 10:07:17 51°25.845 2°49.81 247.2 8 242.7 25.8
2001-11-29 10:07:23 51°25.84 2°49.793 245.5 7.6 242.9 -999
2001-11-29 10:07:28 51°25.835 2°49.779 245 7.3 242.7 -999
2001-11-29 10:07:33 51°25.83 2°49.765 245 7.1 240.9 25.6
2001-11-29 10:07:38 51°25.825 2°49.751 244.8 7.2 240.7 25.7
2001-11-29 10:07:43 51°25.82 2°49.736 244.3 7.5 240.8 25.9
2001-11-29 10:07:48 51°25.815 2°49.721 243.8 7.7 240.8 26.1
2001-11-29 10:07:53 51°25.809 2°49.705 243.7 7.8 241 26.1
2001-11-29 10:07:57 51°25.804 2°49.693 243.2 8.1 240.3 26.2
2001-11-29 10:08:03 51°25.797 2°49.673 243.3 8.3 240.1 26.3
2001-11-29 10:08:08 51°25.791 2°49.657 242.5 8.5 239.4 26.2
2001-11-29 10:08:13 51°25.785 2°49.641 242.2 8.6 238.8 26.2
2001-11-29 10:08:17 51°25.78 2°49.627 242.7 8.7 239.2 26.1
2001-11-29 10:08:23 51°25.772 2°49.607 242.8 8.8 239 26.1
2001-11-29 10:08:28 51°25.766 2°49.59 242.7 8.9 238.7 26
2001-11-29 10:08:33 51°25.76 2°49.573 243 8.9 239.1 25.9
2001-11-29 10:08:37 51°25.755 2°49.559 243.3 8.8 239.5 25.8
2001-11-29 10:08:43 51°25.748 2°49.539 243.7 8.7 239.5 25.6
2001-11-29 10:08:48 51°25.741 2°49.523 242.2 8.7 239.1 25.6
2001-11-29 10:08:53 51°25.735 2°49.506 243 8.8 239 25.7
2001-11-29 10:08:57 51°25.73 2°49.493 243.3 8.8 239.6 25.6
2001-11-29 10:09:03 51°25.723 2°49.472 242.8 8.9 239.5 25.7
2001-11-29 10:09:08 51°25.716 2°49.455 243.5 8.9 240.4 25.7
2001-11-29 10:09:13 51°25.71 2°49.438 243.5 8.9 240.1 25.8
2001-11-29 10:09:17 51°25.705 2°49.424 243.5 8.9 240.2 25.7
2001-11-29 10:09:23 51°25.698 2°49.404 243.5 8.9 240.2 25.8
2001-11-29 10:09:28 51°25.692 2°49.387 244 8.8 240.9 25.9
2001-11-29 10:09:33 51°25.686 2°49.37 243.2 8.8 240.2 25.7
2001-11-29 10:09:37 51°25.681 2°49.357 243.5 8.7 240.5 25.6
2001-11-29 10:09:43 51°25.674 2°49.337 243.7 8.6 240.2 25.5
2001-11-29 10:09:48 51°25.668 2°49.321 243.7 8.5 239.7 25.7
2001-11-29 10:09:53 51°25.662 2°49.305 242.8 8.4 238.7 25.6
2001-11-29 10:09:57 51°25.657 2°49.293 243.5 8.2 239.4 -999
2001-11-29 10:10:03 51°25.651 2°49.274 244.2 8 240.9 25.7
2001-11-29 10:10:08 51°25.645 2°49.259 243.7 8.1 240.4 25.9
2001-11-29 10:10:13 51°25.639 2°49.242 243.2 8.2 239.6 26
2001-11-29 10:10:17 51°25.635 2°49.229 243.3 8.4 240.6 26.1
2001-11-29 10:10:21 51°25.63 2°49.217 243.2 8.3 240.4 26
2001-11-29 10:10:28 51°25.622 2°49.194 243 8.3 239.5 26.2
2001-11-29 10:10:33 51°25.616 2°49.179 242.2 8.3 238.3 26.1
2001-11-29 10:10:38 51°25.609 2°49.163 241.8 8.4 237.9 26.2
2001-11-29 10:10:43 51°25.603 2°49.146 241.3 8.6 238 26.2
2001-11-29 10:10:48 51°25.596 2°49.13 241.2 8.7 237.2 26.3
2001-11-29 10:10:53 51°25.59 2°49.114 241.3 8.8 237.6 26.3
2001-11-29 10:10:57 51°25.584 2°49.1 241.3 8.8 237.2 26.3
2001-11-29 10:11:03 51°25.576 2°49.08 241.3 9 238.1 26.4
2001-11-29 10:11:08 51°25.57 2°49.063 241.2 9.1 238.1 26.5
2001-11-29 10:11:13 51°25.563 2°49.045 241.5 9.1 238.7 26.4
2001-11-29 10:11:17 51°25.558 2°49.031 240.7 9.1 237.9 26.5
2001-11-29 10:11:23 51°25.55 2°49.011 241.3 9 237.9 26.7
2001-11-29 10:11:28 51°25.543 2°48.994 241.2 9 237.7 26.7
2001-11-29 10:11:33 51°25.537 2°48.977 241 9.1 238 26.7
2001-11-29 10:11:37 51°25.531 2°48.964 240.7 9.1 237.6 26.6
2001-11-29 10:11:43 51°25.523 2°48.942 241 9.2 238.2 26.6
2001-11-29 10:11:48 51°25.516 2°48.925 241.2 9.3 238.2 26.8
2001-11-29 10:11:53 51°25.509 2°48.907 241.3 9.3 238.1 26.9
2001-11-29 10:11:57 51°25.504 2°48.894 241.2 9.2 237.8 27
2001-11-29 10:12:03 51°25.496 2°48.873 241.8 9.1 238.7 27
2001-11-29 10:12:08 51°25.489 2°48.855 241.2 9.1 238.6 27
2001-11-29 10:12:13 51°25.483 2°48.838 241 9.2 238.4 27.1
2001-11-29 10:12:17 51°25.477 2°48.824 241 9.2 238.8 27.1
2001-11-29 10:12:23 51°25.469 2°48.803 240.7 9.2 239.1 27.2
2001-11-29 10:12:28 51°25.463 2°48.785 241.3 9.2 240 27.2
2001-11-29 10:12:33 51°25.456 2°48.768 241 9.3 238.7 27.4
2001-11-29 10:12:37 51°25.451 2°48.753 241.3 9.4 239.2 27.5
2001-11-29 10:12:43 51°25.443 2°48.733 240.8 9.3 238.8 28.3
2001-11-29 10:12:48 51°25.436 2°48.715 241.8 9.3 238.9 29.3
2001-11-29 10:12:53 51°25.43 2°48.697 241.2 9.3 239.6 29.8
2001-11-29 10:12:57 51°25.425 2°48.682 242 9.4 240 30.1
2001-11-29 10:13:03 51°25.417 2°48.66 241.5 9.4 240.8 30.2
2001-11-29 10:13:08 51°25.41 2°48.642 240.8 9.5 239.7 30.2
2001-11-29 10:13:13 51°25.403 2°48.624 241.3 9.5 239.4 30.7
2001-11-29 10:13:17 51°25.398 2°48.609 241 9.5 239 31.2